La Ronge Airport
CYVC : now visible

Airfield :











YOU CAN JOIN US ON...

 
LOGIN :

Register | Disclaimer

   EN    FR    IT 

 









Legend :    VFR   Marginal VFR   IFR   Intensive IFR   Very Intensive IFR
Visi :
Ceiling :
>= 8 km
>= 3000ft
5 to 8 km
1000 to 3000 ft
1500m to 5 km
500 to 1000 ft
800 to 1500m
200 to 500 ft
< 800m
< 200 ft
Symbols :   Thunderstorms  Fog  Heavy snow  Heavy precipitations  Wind > 20 kt







- Airport Elevation : 1242 ft
- IATA code : YVC


CYVC - La Ronge

CURRENT METAR :
  • 230047Z 30006KT 3SM -RA BR SCT026 OVC045 15/14 A2987 RMK SC4SC4 SLP127 DENSITY ALT 1700FT

EXPIRED METARs :
  • 230010Z 28014G20KT 15SM -SHRA OVC040 18/13 A2986 RMK SC8 CVCTV CLD EMBD SLP122 DENSITY ALT 2000FT
  • 222300Z 28012KT 15SM OVC050 19/13 A2985 RMK SC8 SLP116 DENSITY ALT 2100FT
  • 222235Z 28009KT 15SM -SHRA OVC052 20/13 A2984 RMK SC8 CVCTV CLD EMBD SLP113 DENSITY ALT 2200FT
  • 222200Z 21002KT 15SM BKN050 21/14 A2983 RMK SC7 SLP111 DENSITY ALT 2400FT

TAF TAF CYVC
Valid from the 23 at 01:00 until the 23 at 13:00 UTC


230038Z 2301/2313 28010KT P6SM OVC040
TEMPO 2301/2304 P6SM -SHRA
FM230400 27007KT P6SM FEW020 SCT100 BKN220
FM231000 27005KT P6SM FEW012 RMK NXT FCST BY 230700Z
No reported NOTAMs for that airfield.



MET'MAP, your aeronautical weather chart ! - Copyright ORBIFLY December 2007 - Disclaimer

ORBIFLY MET'MAP TEAM :

Programming & Development : Alexandra Zaïnal
Concept & Development : Baudouin d'Aumeries
Co-Development & Prog : Marc-Olivier Méhu
Technical & hardware support : Manuel Goepfert

Contact : metmap@orbifly.com




SOURCES & CREDITS :

   NOAA       Earth
Advisory